createdAt,value
2022-08-22T12:11:22.242Z,71.9
2022-08-22T12:12:27.588Z,67.8
2022-08-22T12:13:36.271Z,69.1
2022-08-22T12:14:44.000Z,68.9
2022-08-22T12:15:55.105Z,70.2
2022-08-22T12:17:00.779Z,69.9
2022-08-22T12:18:05.054Z,69.7
2022-08-22T12:19:11.953Z,68.5
2022-08-22T12:20:18.683Z,66.7
2022-08-22T12:21:26.100Z,64.8
2022-08-22T12:22:32.357Z,64.4
2022-08-22T12:23:50.329Z,64.7
2022-08-22T12:24:55.784Z,63.5
2022-08-22T12:26:10.700Z,62.5
2022-08-22T12:27:29.083Z,60.2
2022-08-22T12:28:33.630Z,59.2
2022-08-22T12:29:45.730Z,57.8
2022-08-22T12:30:55.843Z,58.1
2022-08-22T12:32:00.097Z,58.8
2022-08-22T12:33:13.089Z,58.9
2022-08-22T12:34:25.738Z,59.1
2022-08-22T12:35:31.386Z,57.7
2022-08-22T12:36:37.396Z,59.9
2022-08-22T12:38:30.730Z,59.8
2022-08-22T12:39:44.849Z,59.3
2022-08-22T12:40:52.727Z,60.2
2022-08-22T12:41:58.460Z,63.1
2022-08-22T12:43:07.741Z,63.9
2022-08-22T12:44:18.500Z,61.2
2022-08-22T12:45:25.197Z,60.7
2022-08-22T12:46:30.066Z,60.1
2022-08-22T12:47:36.660Z,59.2
2022-08-22T12:48:48.757Z,58.9
2022-08-22T12:49:53.809Z,57.3
2022-08-22T12:51:02.250Z,56.5
2022-08-22T12:52:22.594Z,56
2022-08-22T12:53:29.498Z,54.1
2022-08-22T12:54:34.835Z,54.1
2022-08-22T12:55:39.444Z,55.3
2022-08-22T12:56:49.111Z,54.9
2022-08-22T12:57:55.437Z,55.5
2022-08-22T12:59:00.099Z,55.9
2022-08-22T13:00:06.715Z,56
2022-08-22T13:01:14.931Z,56.4
2022-08-22T13:02:25.571Z,56.7
2022-08-22T13:03:31.680Z,57.3
2022-08-22T13:04:37.005Z,57.7
2022-08-22T13:05:42.480Z,57.6
2022-08-22T13:06:58.907Z,56.9
2022-08-22T13:08:08.115Z,56.5
2022-08-22T13:09:15.147Z,57
2022-08-22T13:10:30.633Z,56.3
2022-08-22T13:11:34.899Z,53.8
2022-08-22T13:12:45.300Z,54.1
2022-08-22T13:13:57.844Z,54.5
2022-08-22T13:15:03.587Z,54.3
2022-08-22T13:16:13.099Z,56.3
2022-08-22T13:17:26.322Z,58.4
2022-08-22T13:18:32.624Z,59.8
2022-08-22T13:19:44.723Z,61.2
2022-08-22T13:20:49.241Z,62.5
2022-08-22T13:21:54.434Z,62.9
2022-08-22T13:23:02.976Z,61.7
2022-08-22T13:24:38.345Z,61.3
2022-08-22T13:25:57.229Z,61.5
2022-08-22T13:27:06.783Z,61
2022-08-22T13:28:16.909Z,61.6
2022-08-22T13:29:43.843Z,61.7
2022-08-22T13:30:49.473Z,62.1
2022-08-22T13:31:57.366Z,63.2
2022-08-22T13:33:01.612Z,64.5
2022-08-22T13:34:06.625Z,64.2
2022-08-22T13:35:16.608Z,63.5
2022-08-22T13:36:28.119Z,63.7
2022-08-22T13:37:37.109Z,64.1
2022-08-22T13:38:47.742Z,63.1
2022-08-22T13:39:53.824Z,64.3
2022-08-22T13:40:58.389Z,64.4
2022-08-22T13:42:02.650Z,64
2022-08-22T13:43:34.210Z,64.7
2022-08-22T13:44:40.501Z,65.3
2022-08-22T13:45:47.031Z,67.3
2022-08-22T13:47:14.903Z,67.3
2022-08-22T13:48:20.162Z,67.6
2022-08-22T13:49:34.092Z,68.5
2022-08-22T13:50:55.047Z,70.7
2022-08-22T13:51:59.326Z,67
2022-08-22T13:53:03.751Z,65.3
2022-08-22T13:54:13.357Z,65.4
2022-08-22T13:55:20.119Z,66.2
2022-08-22T13:56:26.947Z,65.9
2022-08-22T13:57:32.364Z,66.9
2022-08-22T13:58:38.939Z,67.3
2022-08-22T13:59:57.740Z,68.1
2022-08-22T14:01:12.524Z,68.5
2022-08-22T14:02:19.443Z,69
2022-08-22T14:03:39.963Z,68.1
2022-08-22T14:04:46.609Z,68.3
2022-08-22T14:05:54.375Z,69.3
2022-08-22T14:07:46.140Z,70.1
2022-08-22T14:08:56.765Z,70.1
2022-08-22T14:10:03.882Z,69.1
2022-08-22T14:11:18.156Z,69.3
2022-08-22T14:12:24.642Z,68.2
2022-08-22T14:13:38.078Z,68.9
2022-08-22T14:14:45.976Z,70
2022-08-22T14:15:54.306Z,69.4
2022-08-22T14:16:58.696Z,69.7
2022-08-22T14:18:04.610Z,70.4
2022-08-22T14:19:16.290Z,71.6
2022-08-22T14:20:34.046Z,72.4
2022-08-22T14:21:42.075Z,72.9
2022-08-22T14:22:48.005Z,73
2022-08-22T14:24:01.854Z,73.3
2022-08-22T14:25:09.222Z,74.2
2022-08-22T14:26:15.082Z,74.5
2022-08-22T14:27:21.885Z,73.5
2022-08-22T14:28:28.860Z,74.2
2022-08-22T14:29:39.767Z,74.8
2022-08-22T14:30:47.389Z,74.5
2022-08-22T14:32:02.418Z,75.3
2022-08-22T14:33:10.736Z,75.3
2022-08-22T14:34:16.940Z,75.3
2022-08-22T14:35:37.791Z,75.3
2022-08-22T14:36:45.983Z,76.4
2022-08-22T14:37:50.288Z,76.6
2022-08-22T14:38:55.967Z,76.5
2022-08-22T14:40:02.671Z,76.4
2022-08-22T14:41:08.653Z,77.1
2022-08-22T14:42:16.616Z,77.8
2022-08-22T14:43:23.709Z,78.4
2022-08-22T14:44:28.822Z,78.9
2022-08-22T14:45:34.324Z,80.4
2022-08-22T14:46:43.402Z,78.1
2022-08-22T14:48:29.257Z,79.1
2022-08-22T14:49:43.734Z,79.5
2022-08-22T14:50:54.059Z,80.9
2022-08-22T14:51:58.683Z,80.9
2022-08-22T14:53:05.726Z,80.9
2022-08-22T14:54:22.485Z,81.8
2022-08-22T14:55:33.632Z,84
2022-08-22T14:56:37.892Z,84
2022-08-22T14:57:44.895Z,83.6
2022-08-22T14:58:50.828Z,83.3
2022-08-22T14:59:57.368Z,82.5
2022-08-22T15:01:02.026Z,82.6
2022-08-22T15:02:06.622Z,83.4
2022-08-22T15:03:11.142Z,82.1
2022-08-22T15:04:20.621Z,80.5
2022-08-22T15:05:46.021Z,76.9
2022-08-22T15:06:52.080Z,73.4
2022-08-22T15:07:57.427Z,73.9
2022-08-22T15:09:09.187Z,72.1
2022-08-22T15:10:13.482Z,71.6
2022-08-22T15:11:27.106Z,73.3
2022-08-22T15:12:38.908Z,73.5
2022-08-22T15:13:43.825Z,72.8
2022-08-22T15:14:53.532Z,73.1
2022-08-22T15:16:09.515Z,73.8
2022-08-22T15:17:18.554Z,74.2
2022-08-22T15:18:22.892Z,73
2022-08-22T15:19:28.359Z,71.8
2022-08-22T15:20:45.199Z,72.9
2022-08-22T15:21:55.477Z,74.1
2022-08-22T15:23:09.995Z,74.6
2022-08-22T15:24:18.838Z,76.2
2022-08-22T15:25:23.121Z,74.6
2022-08-22T15:26:30.663Z,74.8
2022-08-22T15:27:35.122Z,74.8
2022-08-22T15:28:54.541Z,74.6
2022-08-22T15:29:59.155Z,73.5
2022-08-22T15:31:06.518Z,74.1
2022-08-22T15:32:15.302Z,75.1
2022-08-22T15:33:23.986Z,75.3
2022-08-22T15:34:34.110Z,75
2022-08-22T15:35:40.853Z,76.4
2022-08-22T15:36:45.154Z,75.9
2022-08-22T15:37:50.367Z,75.1
2022-08-22T15:38:54.650Z,74.8
2022-08-22T15:40:10.623Z,75.6
2022-08-22T15:41:16.350Z,76.4
2022-08-22T15:42:20.991Z,78
2022-08-22T15:43:33.813Z,78
2022-08-22T15:44:39.471Z,75.5
2022-08-22T15:45:52.578Z,73
2022-08-22T15:46:58.784Z,72.7
2022-08-22T15:48:04.421Z,73.7
2022-08-22T15:49:12.342Z,75
2022-08-22T15:50:18.966Z,75
2022-08-22T15:51:29.236Z,77.6
2022-08-22T15:52:33.533Z,76.4
2022-08-22T15:53:42.176Z,77
2022-08-22T15:54:52.461Z,76.3
2022-08-22T15:56:05.960Z,75.5
2022-08-22T15:57:13.595Z,73.9
2022-08-22T15:58:18.375Z,75.4
2022-08-22T15:59:23.871Z,77.3
2022-08-22T16:00:29.337Z,76.5
2022-08-22T16:01:35.463Z,78.6
2022-08-22T16:02:46.386Z,78.7
2022-08-22T16:03:50.681Z,77.7
2022-08-22T16:04:54.938Z,78.7
2022-08-22T16:06:00.361Z,79.2
2022-08-22T16:07:10.726Z,78.8
2022-08-22T16:08:17.111Z,79.7
2022-08-22T16:09:21.383Z,79.8
2022-08-22T16:10:25.700Z,78.4
2022-08-22T16:11:34.377Z,78.7
2022-08-22T16:12:38.646Z,79
2022-08-22T16:13:45.110Z,79.8
2022-08-22T16:14:49.679Z,80.5
2022-08-22T16:15:57.824Z,80.1
2022-08-22T16:17:02.081Z,79.5
2022-08-22T16:18:06.719Z,80
2022-08-22T16:19:13.123Z,80.4
2022-08-22T16:20:21.088Z,81.7
2022-08-22T16:21:25.356Z,82.1
2022-08-22T16:22:30.082Z,82.8
2022-08-22T16:23:34.320Z,81.9
2022-08-22T16:24:41.107Z,82.8
2022-08-22T16:25:45.797Z,82.9
2022-08-22T16:26:50.029Z,84.1
2022-08-22T16:27:54.394Z,85
2022-08-22T16:29:00.195Z,84.5
2022-08-22T16:30:07.087Z,85.9
2022-08-22T16:31:11.346Z,86.6
2022-08-22T16:32:15.615Z,87.6
2022-08-22T16:33:19.919Z,88.3
2022-08-22T16:34:24.185Z,89.1
2022-08-22T16:35:33.078Z,89.7
2022-08-22T16:36:41.974Z,90.4
2022-08-22T16:37:46.237Z,90.6
2022-08-22T16:38:50.762Z,92.1
2022-08-22T16:39:55.232Z,92.9
2022-08-22T16:41:02.096Z,93.7
2022-08-22T16:42:06.400Z,93.5
2022-08-22T16:43:10.667Z,93.4
2022-08-22T16:44:14.927Z,93.3
2022-08-22T16:45:21.045Z,94
2022-08-22T16:46:36.381Z,93.8
2022-08-22T16:47:40.920Z,93.4
2022-08-22T16:48:54.610Z,93.8
2022-08-22T16:49:58.896Z,94.8
2022-08-22T16:51:03.268Z,95.4
2022-08-22T16:52:10.100Z,96.5
2022-08-22T16:53:14.364Z,97.6
2022-08-22T16:54:18.638Z,99
2022-08-22T16:55:22.915Z,99.2
2022-08-22T16:56:27.174Z,99.8
2022-08-22T16:57:34.121Z,100
2022-08-22T16:59:03.250Z,100
2022-08-22T17:00:26.458Z,100
2022-08-22T17:01:30.862Z,100
2022-08-22T17:02:35.298Z,100
2022-08-22T17:03:42.131Z,100
2022-08-22T17:04:46.394Z,100
2022-08-22T17:05:50.647Z,100
2022-08-22T17:06:54.911Z,100
2022-08-22T17:07:59.537Z,100
2022-08-22T17:09:07.116Z,100
2022-08-22T17:10:13.700Z,100
2022-08-22T17:11:17.945Z,100
2022-08-22T17:12:22.215Z,100
2022-08-22T17:13:27.986Z,100
2022-08-22T17:14:39.171Z,100
2022-08-22T17:15:45.699Z,100
2022-08-22T17:16:55.157Z,100
2022-08-22T17:17:59.875Z,100
2022-08-22T17:19:15.870Z,100
2022-08-22T17:20:23.094Z,100
2022-08-22T17:21:27.579Z,100
2022-08-22T17:22:31.833Z,100
2022-08-22T17:23:36.093Z,100
2022-08-22T17:24:40.342Z,100
2022-08-22T17:25:47.105Z,100
2022-08-22T17:26:55.435Z,100
2022-08-22T17:28:00.117Z,100
2022-08-22T17:29:06.148Z,100
2022-08-22T17:30:10.431Z,100
2022-08-22T17:31:17.087Z,100
2022-08-22T17:32:21.395Z,100
2022-08-22T17:33:29.788Z,100
2022-08-22T17:34:37.215Z,100
2022-08-22T17:35:41.460Z,100
2022-08-22T17:36:48.084Z,100
2022-08-22T17:37:52.337Z,100
2022-08-22T17:38:56.734Z,100
2022-08-22T17:40:01.303Z,100
2022-08-22T17:41:05.736Z,100
2022-08-22T17:42:22.053Z,100
2022-08-22T17:43:26.328Z,100
2022-08-22T17:44:51.194Z,100
2022-08-22T17:45:55.459Z,100
2022-08-22T17:46:59.708Z,100
2022-08-22T17:48:06.092Z,100
2022-08-22T17:49:10.348Z,100
2022-08-22T17:50:14.611Z,100
2022-08-22T17:51:18.872Z,100
2022-08-22T17:52:28.456Z,100
2022-08-22T17:53:35.108Z,100
2022-08-22T17:54:39.365Z,100
2022-08-22T17:55:43.665Z,100
2022-08-22T17:56:58.902Z,100
2022-08-22T17:58:10.084Z,100
2022-08-22T17:59:36.106Z,100
2022-08-22T18:00:40.370Z,100
2022-08-22T18:01:44.812Z,100
2022-08-22T18:02:49.318Z,100
2022-08-22T18:03:53.590Z,100
2022-08-22T18:05:00.096Z,100
2022-08-22T18:06:04.372Z,100
2022-08-22T18:07:08.637Z,100
2022-08-22T18:09:13.161Z,100
2022-08-22T18:10:18.139Z,100
2022-08-22T18:11:28.091Z,100
2022-08-22T18:12:41.991Z,100
2022-08-22T18:13:46.255Z,100
2022-08-22T18:14:50.555Z,100
2022-08-22T18:15:54.825Z,100
2022-08-22T18:17:01.216Z,100
2022-08-22T18:18:05.514Z,100
2022-08-22T18:19:09.782Z,100
2022-08-22T18:20:14.065Z,100
2022-08-22T18:21:18.329Z,100
2022-08-22T18:22:25.077Z,100
2022-08-22T18:23:41.645Z,100
2022-08-22T18:24:46.256Z,100
2022-08-22T18:25:53.758Z,100
2022-08-22T18:26:58.014Z,100
2022-08-22T18:28:05.104Z,100
2022-08-22T18:29:09.360Z,100
2022-08-22T18:30:13.631Z,100
2022-08-22T18:31:17.876Z,100
2022-08-22T18:32:22.146Z,100
2022-08-22T18:33:34.061Z,100
2022-08-22T18:34:42.193Z,100
2022-08-22T18:35:53.746Z,100
2022-08-22T18:36:59.853Z,100
2022-08-22T18:38:04.345Z,100
2022-08-22T18:39:26.101Z,100
2022-08-22T18:40:33.505Z,100
2022-08-22T18:41:40.033Z,100
2022-08-22T18:42:45.927Z,100
2022-08-22T18:43:50.215Z,100
2022-08-22T18:44:57.084Z,100
2022-08-22T18:46:05.002Z,100
2022-08-22T18:47:09.266Z,100
2022-08-22T18:48:13.532Z,100
2022-08-22T18:49:17.810Z,100
2022-08-22T18:50:25.689Z,100
2022-08-22T18:51:29.943Z,100
2022-08-22T18:52:37.808Z,100
2022-08-22T18:53:42.090Z,100
2022-08-22T18:54:46.365Z,100
2022-08-22T18:55:53.072Z,100
2022-08-22T18:56:57.338Z,100
2022-08-22T18:58:01.822Z,100
2022-08-22T18:59:07.332Z,100
2022-08-22T19:00:11.600Z,100
2022-08-22T19:01:22.201Z,100
2022-08-22T19:02:55.614Z,100
2022-08-22T19:04:00.508Z,100
2022-08-22T19:05:05.831Z,100
2022-08-22T19:06:10.109Z,100
2022-08-22T19:07:17.086Z,100
2022-08-22T19:08:21.344Z,100
2022-08-22T19:09:25.633Z,100
2022-08-22T19:10:29.886Z,100
2022-08-22T19:11:38.326Z,100
2022-08-22T19:12:45.096Z,100
2022-08-22T19:13:49.353Z,100
2022-08-22T19:14:53.606Z,100
2022-08-22T19:15:57.859Z,100
2022-08-22T19:17:02.133Z,100
2022-08-22T19:18:09.080Z,100
2022-08-22T19:19:18.785Z,100
2022-08-22T19:20:23.075Z,100
2022-08-22T19:21:29.835Z,100
2022-08-22T19:22:34.123Z,100
2022-08-22T19:23:41.125Z,100
2022-08-22T19:24:45.398Z,100
2022-08-22T19:25:49.663Z,100
2022-08-22T19:26:53.927Z,100
2022-08-22T19:27:58.224Z,100
2022-08-22T19:29:10.855Z,100
2022-08-22T19:30:15.214Z,100
2022-08-22T19:31:19.472Z,100
2022-08-22T19:32:23.723Z,100
2022-08-22T19:33:35.875Z,100
2022-08-22T19:34:48.273Z,100
2022-08-22T19:35:52.534Z,100
2022-08-22T19:36:59.995Z,100
2022-08-22T19:38:04.262Z,100
2022-08-22T19:39:10.459Z,100
2022-08-22T19:40:23.249Z,100
2022-08-22T19:41:29.428Z,100
2022-08-22T19:42:38.228Z,100
2022-08-22T19:43:42.483Z,100
2022-08-22T19:44:46.739Z,100
2022-08-22T19:45:53.106Z,100
2022-08-22T19:46:57.403Z,100
2022-08-22T19:48:01.695Z,100
2022-08-22T19:49:07.382Z,100
2022-08-22T19:50:11.726Z,100
2022-08-22T19:51:19.092Z,100
2022-08-22T19:52:23.365Z,100
2022-08-22T19:53:27.625Z,100
2022-08-22T19:54:31.912Z,100
2022-08-22T19:55:36.183Z,100
2022-08-22T19:56:43.106Z,100
2022-08-22T19:57:47.380Z,100
2022-08-22T19:58:51.671Z,100
2022-08-22T19:59:55.927Z,100
2022-08-22T20:01:03.068Z,100
2022-08-22T20:02:13.080Z,100
2022-08-22T20:03:19.135Z,100
2022-08-22T20:04:23.902Z,100
2022-08-22T20:05:28.189Z,100
2022-08-22T20:06:45.427Z,100
2022-08-22T20:07:52.094Z,100
2022-08-22T20:08:56.378Z,100
2022-08-22T20:10:00.642Z,100
2022-08-22T20:11:04.919Z,100
2022-08-22T20:12:15.607Z,100
2022-08-22T20:13:23.086Z,100
2022-08-22T20:14:31.741Z,100
2022-08-22T20:15:36.266Z,100
2022-08-22T20:16:52.811Z,100
2022-08-22T20:18:48.704Z,100
2022-08-22T20:20:23.884Z,100
2022-08-22T20:21:40.381Z,100
2022-08-22T20:22:44.623Z,100
2022-08-22T20:23:48.869Z,100
2022-08-22T20:24:54.640Z,100
2022-08-22T20:26:01.103Z,100
2022-08-22T20:27:15.819Z,100
2022-08-22T20:28:21.924Z,100
2022-08-22T20:29:26.181Z,100
2022-08-22T20:30:30.429Z,100
2022-08-22T20:31:37.123Z,100
2022-08-22T20:32:41.404Z,100
2022-08-22T20:33:47.773Z,100
2022-08-22T20:34:54.441Z,100
2022-08-22T20:35:58.715Z,100
2022-08-22T20:37:50.593Z,100
2022-08-22T20:39:10.274Z,100
2022-08-22T20:40:57.713Z,100
2022-08-22T20:42:13.346Z,100
2022-08-22T20:43:18.678Z,100
2022-08-22T20:44:28.065Z,100
2022-08-22T20:45:35.494Z,100
2022-08-22T20:46:46.073Z,100
2022-08-22T20:47:57.225Z,100
2022-08-22T20:49:05.100Z,100
2022-08-22T20:50:12.123Z,100
2022-08-22T20:51:16.422Z,100
2022-08-22T20:52:20.709Z,100
2022-08-22T20:53:24.951Z,100
2022-08-22T20:54:29.248Z,100
2022-08-22T20:55:36.103Z,100
2022-08-22T20:56:54.033Z,100
2022-08-22T20:57:59.067Z,100
2022-08-22T20:59:04.051Z,100
2022-08-22T21:00:08.301Z,100
2022-08-22T21:01:15.249Z,100
2022-08-22T21:02:19.717Z,100
2022-08-22T21:03:23.992Z,100
2022-08-22T21:04:28.285Z,100
2022-08-22T21:05:32.490Z,100
2022-08-22T21:06:39.108Z,100
2022-08-22T21:07:43.372Z,100
2022-08-22T21:08:47.779Z,100
2022-08-22T21:09:52.073Z,100
2022-08-22T21:10:56.344Z,100
2022-08-22T21:12:03.087Z,100
2022-08-22T21:13:07.365Z,100
2022-08-22T21:14:11.645Z,100
2022-08-22T21:15:15.944Z,100
2022-08-22T21:16:20.213Z,100
2022-08-22T21:17:27.273Z,100
2022-08-22T21:18:41.150Z,100
2022-08-22T21:19:48.926Z,100
2022-08-22T21:20:53.172Z,100
2022-08-22T21:21:57.443Z,100
2022-08-22T21:23:04.086Z,100
2022-08-22T21:24:08.372Z,100
2022-08-22T21:25:12.650Z,100
2022-08-22T21:26:16.943Z,100
2022-08-22T21:27:21.212Z,100
2022-08-22T21:28:28.095Z,100
2022-08-22T21:29:35.416Z,100
2022-08-22T21:30:39.702Z,100
2022-08-22T21:31:50.394Z,100
2022-08-22T21:32:57.428Z,100
2022-08-22T21:34:04.092Z,100
2022-08-22T21:35:08.375Z,100
2022-08-22T21:36:12.672Z,100
2022-08-22T21:37:16.958Z,100
2022-08-22T21:38:21.219Z,100
2022-08-22T21:39:28.088Z,100
2022-08-22T21:40:32.526Z,100
2022-08-22T21:41:36.821Z,100
2022-08-22T21:42:41.105Z,100
2022-08-22T21:43:53.821Z,100
2022-08-22T21:45:01.078Z,100
2022-08-22T21:46:05.350Z,100
2022-08-22T21:47:09.625Z,100
2022-08-22T21:48:14.128Z,100
2022-08-22T21:49:18.388Z,100
2022-08-22T21:50:25.096Z,100
2022-08-22T21:51:29.369Z,100
2022-08-22T21:52:33.658Z,100
2022-08-22T21:53:40.228Z,100
2022-08-22T21:54:45.028Z,100
2022-08-22T21:55:52.101Z,100
2022-08-22T21:56:56.367Z,100
2022-08-22T21:58:00.997Z,100
2022-08-22T21:59:07.779Z,100
2022-08-22T22:00:12.235Z,100
2022-08-22T22:01:19.818Z,100
2022-08-22T22:02:34.317Z,100
2022-08-22T22:03:42.936Z,100
2022-08-22T22:04:50.791Z,100
2022-08-22T22:05:55.815Z,100
2022-08-22T22:07:02.223Z,100
2022-08-22T22:08:06.574Z,100
2022-08-22T22:09:15.740Z,100
2022-08-22T22:10:20.015Z,100
2022-08-22T22:11:24.272Z,100
2022-08-22T22:12:31.094Z,100
2022-08-22T22:13:35.340Z,100
2022-08-22T22:14:39.643Z,100
2022-08-22T22:15:43.897Z,100
2022-08-22T22:16:48.156Z,100
2022-08-22T22:17:55.115Z,100
2022-08-22T22:19:00.360Z,100
2022-08-22T22:20:04.644Z,100
2022-08-22T22:21:08.931Z,100
2022-08-22T22:22:13.214Z,100
2022-08-22T22:23:20.117Z,100
2022-08-22T22:24:24.372Z,100
2022-08-22T22:25:42.929Z,100
2022-08-22T22:26:47.640Z,100
2022-08-22T22:27:51.928Z,100
2022-08-22T22:29:04.107Z,100
2022-08-22T22:30:10.806Z,100
2022-08-22T22:31:18.643Z,100
2022-08-22T22:32:22.927Z,100
2022-08-22T22:33:27.199Z,100
2022-08-22T22:34:34.097Z,100
2022-08-22T22:35:38.366Z,100
2022-08-22T22:36:42.619Z,100
2022-08-22T22:37:46.892Z,100
2022-08-22T22:38:53.093Z,100
2022-08-22T22:40:08.123Z,100
2022-08-22T22:41:12.560Z,100
2022-08-22T22:42:17.356Z,100
2022-08-22T22:43:21.650Z,100
2022-08-22T22:44:25.905Z,100
2022-08-22T22:45:33.115Z,100
2022-08-22T22:46:37.377Z,100
2022-08-22T22:47:41.646Z,100
2022-08-22T22:48:45.887Z,100
2022-08-22T22:49:50.148Z,100
2022-08-22T22:50:57.109Z,100
2022-08-22T22:52:01.371Z,100
2022-08-22T22:53:21.353Z,100
2022-08-22T22:54:46.517Z,100
2022-08-22T22:56:01.393Z,100
2022-08-22T22:57:16.194Z,100
2022-08-22T22:58:31.898Z,100
2022-08-22T22:59:37.281Z,100
2022-08-22T23:00:43.477Z,100
2022-08-22T23:01:47.991Z,100
2022-08-22T23:02:55.092Z,100
2022-08-22T23:03:59.368Z,100
2022-08-22T23:05:10.645Z,100
2022-08-22T23:06:15.025Z,100
2022-08-22T23:07:19.305Z,100
2022-08-22T23:08:26.090Z,100
2022-08-22T23:09:45.880Z,100
2022-08-22T23:10:50.146Z,100
2022-08-22T23:11:54.420Z,100
2022-08-22T23:12:58.679Z,100
2022-08-22T23:14:05.106Z,100
2022-08-22T23:15:09.398Z,100
2022-08-22T23:16:13.664Z,100
2022-08-22T23:17:17.926Z,100
2022-08-22T23:18:31.676Z,100
2022-08-22T23:19:39.095Z,100
2022-08-22T23:20:45.198Z,100
2022-08-22T23:21:49.434Z,100
2022-08-22T23:22:53.688Z,100
2022-08-22T23:23:57.944Z,100
2022-08-22T23:25:05.101Z,100
2022-08-22T23:26:09.361Z,100
2022-08-22T23:27:13.634Z,100
2022-08-22T23:28:17.920Z,100
2022-08-22T23:29:22.197Z,100
2022-08-22T23:30:29.103Z,100
2022-08-22T23:31:33.360Z,100
2022-08-22T23:32:37.604Z,100
2022-08-22T23:33:41.873Z,100
2022-08-22T23:34:46.179Z,100
2022-08-22T23:35:59.940Z,100
2022-08-22T23:37:07.729Z,100
2022-08-22T23:38:12.355Z,100
2022-08-22T23:39:22.057Z,100
2022-08-22T23:40:26.420Z,100
2022-08-22T23:41:33.115Z,100
2022-08-22T23:42:37.399Z,100
2022-08-22T23:43:41.698Z,100
2022-08-22T23:44:45.971Z,100
2022-08-22T23:45:50.238Z,100
2022-08-22T23:46:57.124Z,100
2022-08-22T23:48:01.756Z,100
2022-08-22T23:49:06.136Z,100
2022-08-22T23:50:10.397Z,100
2022-08-22T23:51:15.079Z,100
2022-08-22T23:52:28.445Z,100
2022-08-22T23:53:33.167Z,100
2022-08-22T23:54:37.416Z,100
2022-08-22T23:55:41.759Z,100
2022-08-22T23:56:46.040Z,100
2022-08-22T23:57:53.203Z,100
2022-08-22T23:59:03.836Z,100
